sensor_id;sensor_type;location;lat;lon;timestamp;P1;durP1;ratioP1;P2;durP2;ratioP2
4529;SDS011;2277;51.626;7.516;2023-07-31T00:00:26;2.73;;;1.80;;
4529;SDS011;2277;51.626;7.516;2023-07-31T00:02:52;3.17;;;1.77;;
4529;SDS011;2277;51.626;7.516;2023-07-31T00:05:18;2.43;;;1.80;;
4529;SDS011;2277;51.626;7.516;2023-07-31T00:07:43;1.30;;;1.10;;
4529;SDS011;2277;51.626;7.516;2023-07-31T00:10:09;8.40;;;2.17;;
4529;SDS011;2277;51.626;7.516;2023-07-31T00:12:35;1.70;;;1.20;;
4529;SDS011;2277;51.626;7.516;2023-07-31T00:15:01;2.27;;;1.57;;
4529;SDS011;2277;51.626;7.516;2023-07-31T00:17:27;1.73;;;1.30;;
4529;SDS011;2277;51.626;7.516;2023-07-31T00:19:53;2.80;;;1.43;;
4529;SDS011;2277;51.626;7.516;2023-07-31T00:22:18;2.90;;;1.30;;
4529;SDS011;2277;51.626;7.516;2023-07-31T00:24:44;2.20;;;1.00;;
4529;SDS011;2277;51.626;7.516;2023-07-31T00:27:09;3.23;;;1.73;;
4529;SDS011;2277;51.626;7.516;2023-07-31T00:29:35;2.40;;;1.63;;
4529;SDS011;2277;51.626;7.516;2023-07-31T00:32:01;4.93;;;1.60;;
4529;SDS011;2277;51.626;7.516;2023-07-31T00:34:26;1.90;;;1.50;;
4529;SDS011;2277;51.626;7.516;2023-07-31T00:36:52;4.07;;;2.13;;
4529;SDS011;2277;51.626;7.516;2023-07-31T00:39:17;4.13;;;1.60;;
4529;SDS011;2277;51.626;7.516;2023-07-31T00:41:43;2.43;;;2.23;;
4529;SDS011;2277;51.626;7.516;2023-07-31T00:44:08;2.27;;;2.00;;
4529;SDS011;2277;51.626;7.516;2023-07-31T00:46:34;5.07;;;2.40;;
4529;SDS011;2277;51.626;7.516;2023-07-31T00:48:59;3.10;;;2.50;;
4529;SDS011;2277;51.626;7.516;2023-07-31T00:51:25;2.23;;;1.70;;
4529;SDS011;2277;51.626;7.516;2023-07-31T00:53:51;3.27;;;1.97;;
4529;SDS011;2277;51.626;7.516;2023-07-31T00:56:19;3.40;;;2.40;;
4529;SDS011;2277;51.626;7.516;2023-07-31T00:58:44;3.83;;;3.27;;
4529;SDS011;2277;51.626;7.516;2023-07-31T01:01:10;6.30;;;2.50;;
4529;SDS011;2277;51.626;7.516;2023-07-31T01:03:35;2.90;;;1.90;;
4529;SDS011;2277;51.626;7.516;2023-07-31T01:08:57;5.20;;;3.60;;
4529;SDS011;2277;51.626;7.516;2023-07-31T01:11:30;8.70;;;2.70;;
4529;SDS011;2277;51.626;7.516;2023-07-31T01:13:57;3.60;;;3.30;;
4529;SDS011;2277;51.626;7.516;2023-07-31T01:16:24;7.00;;;4.40;;
4529;SDS011;2277;51.626;7.516;2023-07-31T01:18:50;6.93;;;4.57;;
4529;SDS011;2277;51.626;7.516;2023-07-31T01:26:40;9.47;;;5.60;;
4529;SDS011;2277;51.626;7.516;2023-07-31T01:31:46;9.10;;;5.93;;
4529;SDS011;2277;51.626;7.516;2023-07-31T01:34:14;11.20;;;5.47;;
4529;SDS011;2277;51.626;7.516;2023-07-31T01:36:43;8.50;;;5.37;;
4529;SDS011;2277;51.626;7.516;2023-07-31T01:39:09;19.40;;;7.93;;
4529;SDS011;2277;51.626;7.516;2023-07-31T01:41:34;17.53;;;7.70;;
4529;SDS011;2277;51.626;7.516;2023-07-31T01:44:00;6.10;;;4.47;;
4529;SDS011;2277;51.626;7.516;2023-07-31T01:46:26;10.60;;;5.17;;
4529;SDS011;2277;51.626;7.516;2023-07-31T01:48:51;8.07;;;5.33;;
4529;SDS011;2277;51.626;7.516;2023-07-31T01:51:17;13.70;;;6.87;;
4529;SDS011;2277;51.626;7.516;2023-07-31T01:53:42;15.23;;;5.50;;
4529;SDS011;2277;51.626;7.516;2023-07-31T01:56:08;9.23;;;5.17;;
4529;SDS011;2277;51.626;7.516;2023-07-31T01:58:34;9.10;;;5.40;;
4529;SDS011;2277;51.626;7.516;2023-07-31T02:00:59;11.23;;;5.83;;
4529;SDS011;2277;51.626;7.516;2023-07-31T02:03:25;7.57;;;4.10;;
4529;SDS011;2277;51.626;7.516;2023-07-31T02:05:50;6.23;;;3.60;;
4529;SDS011;2277;51.626;7.516;2023-07-31T02:08:16;6.93;;;5.30;;
4529;SDS011;2277;51.626;7.516;2023-07-31T02:10:42;8.40;;;5.00;;
4529;SDS011;2277;51.626;7.516;2023-07-31T02:13:07;8.53;;;5.07;;
4529;SDS011;2277;51.626;7.516;2023-07-31T02:15:34;6.23;;;4.80;;
4529;SDS011;2277;51.626;7.516;2023-07-31T02:18:00;9.90;;;6.50;;
4529;SDS011;2277;51.626;7.516;2023-07-31T02:20:26;17.03;;;6.93;;
4529;SDS011;2277;51.626;7.516;2023-07-31T02:22:51;14.30;;;4.60;;
4529;SDS011;2277;51.626;7.516;2023-07-31T02:25:17;11.73;;;5.60;;
4529;SDS011;2277;51.626;7.516;2023-07-31T02:27:42;8.20;;;4.63;;
4529;SDS011;2277;51.626;7.516;2023-07-31T02:30:08;11.60;;;7.13;;
4529;SDS011;2277;51.626;7.516;2023-07-31T02:32:34;16.73;;;5.20;;
4529;SDS011;2277;51.626;7.516;2023-07-31T02:35:00;7.77;;;4.43;;
4529;SDS011;2277;51.626;7.516;2023-07-31T02:37:25;9.13;;;5.23;;
4529;SDS011;2277;51.626;7.516;2023-07-31T02:39:53;7.43;;;5.00;;
4529;SDS011;2277;51.626;7.516;2023-07-31T02:42:19;11.07;;;5.17;;
4529;SDS011;2277;51.626;7.516;2023-07-31T02:44:44;7.37;;;5.10;;
4529;SDS011;2277;51.626;7.516;2023-07-31T02:47:10;9.43;;;4.70;;
4529;SDS011;2277;51.626;7.516;2023-07-31T02:49:35;12.93;;;6.30;;
4529;SDS011;2277;51.626;7.516;2023-07-31T02:52:01;10.10;;;4.93;;
4529;SDS011;2277;51.626;7.516;2023-07-31T02:54:27;12.73;;;6.93;;
4529;SDS011;2277;51.626;7.516;2023-07-31T02:56:52;7.90;;;5.30;;
4529;SDS011;2277;51.626;7.516;2023-07-31T02:59:18;10.80;;;4.80;;
4529;SDS011;2277;51.626;7.516;2023-07-31T03:01:44;6.73;;;3.90;;
4529;SDS011;2277;51.626;7.516;2023-07-31T03:04:09;8.27;;;4.40;;
4529;SDS011;2277;51.626;7.516;2023-07-31T03:06:35;13.83;;;3.77;;
4529;SDS011;2277;51.626;7.516;2023-07-31T03:09:00;5.17;;;2.73;;
4529;SDS011;2277;51.626;7.516;2023-07-31T03:11:26;4.50;;;3.80;;
4529;SDS011;2277;51.626;7.516;2023-07-31T03:13:52;5.33;;;3.00;;
4529;SDS011;2277;51.626;7.516;2023-07-31T03:16:19;7.33;;;3.70;;
4529;SDS011;2277;51.626;7.516;2023-07-31T03:18:44;7.93;;;3.27;;
4529;SDS011;2277;51.626;7.516;2023-07-31T03:21:10;7.50;;;4.03;;
4529;SDS011;2277;51.626;7.516;2023-07-31T03:23:35;8.37;;;3.80;;
4529;SDS011;2277;51.626;7.516;2023-07-31T03:26:02;6.17;;;4.30;;
4529;SDS011;2277;51.626;7.516;2023-07-31T03:28:28;7.00;;;3.70;;
4529;SDS011;2277;51.626;7.516;2023-07-31T03:30:54;12.07;;;4.67;;
4529;SDS011;2277;51.626;7.516;2023-07-31T03:33:20;15.93;;;9.07;;
4529;SDS011;2277;51.626;7.516;2023-07-31T03:35:46;18.00;;;7.30;;
4529;SDS011;2277;51.626;7.516;2023-07-31T03:38:11;12.13;;;5.93;;
4529;SDS011;2277;51.626;7.516;2023-07-31T03:40:37;7.77;;;3.93;;
4529;SDS011;2277;51.626;7.516;2023-07-31T03:43:03;9.77;;;4.37;;
4529;SDS011;2277;51.626;7.516;2023-07-31T03:45:28;15.03;;;4.90;;
4529;SDS011;2277;51.626;7.516;2023-07-31T03:47:54;21.27;;;5.73;;
4529;SDS011;2277;51.626;7.516;2023-07-31T03:50:20;9.30;;;5.50;;
4529;SDS011;2277;51.626;7.516;2023-07-31T03:52:46;10.17;;;4.43;;
4529;SDS011;2277;51.626;7.516;2023-07-31T03:55:11;14.17;;;4.23;;
4529;SDS011;2277;51.626;7.516;2023-07-31T03:57:37;7.77;;;4.10;;
4529;SDS011;2277;51.626;7.516;2023-07-31T04:00:02;6.40;;;2.90;;
4529;SDS011;2277;51.626;7.516;2023-07-31T04:02:29;11.43;;;3.93;;
4529;SDS011;2277;51.626;7.516;2023-07-31T04:04:54;8.30;;;4.20;;
4529;SDS011;2277;51.626;7.516;2023-07-31T04:07:20;9.57;;;3.40;;
4529;SDS011;2277;51.626;7.516;2023-07-31T04:09:45;5.20;;;4.00;;
4529;SDS011;2277;51.626;7.516;2023-07-31T04:12:11;20.53;;;11.70;;
4529;SDS011;2277;51.626;7.516;2023-07-31T04:14:36;7.93;;;5.17;;
4529;SDS011;2277;51.626;7.516;2023-07-31T04:17:02;6.40;;;3.90;;
4529;SDS011;2277;51.626;7.516;2023-07-31T04:19:28;6.03;;;3.20;;
4529;SDS011;2277;51.626;7.516;2023-07-31T04:21:53;6.73;;;3.80;;
4529;SDS011;2277;51.626;7.516;2023-07-31T04:24:19;15.83;;;5.80;;
4529;SDS011;2277;51.626;7.516;2023-07-31T04:26:49;7.47;;;4.10;;
4529;SDS011;2277;51.626;7.516;2023-07-31T04:29:15;14.43;;;5.73;;
4529;SDS011;2277;51.626;7.516;2023-07-31T04:31:41;4.73;;;3.60;;
4529;SDS011;2277;51.626;7.516;2023-07-31T04:34:06;12.60;;;4.10;;
4529;SDS011;2277;51.626;7.516;2023-07-31T04:36:33;7.80;;;5.27;;
4529;SDS011;2277;51.626;7.516;2023-07-31T04:38:59;9.90;;;4.90;;
4529;SDS011;2277;51.626;7.516;2023-07-31T04:41:24;4.90;;;3.80;;
4529;SDS011;2277;51.626;7.516;2023-07-31T04:43:50;10.20;;;3.87;;
4529;SDS011;2277;51.626;7.516;2023-07-31T04:46:16;17.00;;;5.03;;
4529;SDS011;2277;51.626;7.516;2023-07-31T04:48:42;10.70;;;4.50;;
4529;SDS011;2277;51.626;7.516;2023-07-31T04:51:08;5.27;;;3.07;;
4529;SDS011;2277;51.626;7.516;2023-07-31T04:53:34;10.13;;;4.17;;
4529;SDS011;2277;51.626;7.516;2023-07-31T04:56:00;15.13;;;7.83;;
4529;SDS011;2277;51.626;7.516;2023-07-31T04:58:25;5.83;;;4.33;;
4529;SDS011;2277;51.626;7.516;2023-07-31T05:00:51;6.20;;;3.80;;
4529;SDS011;2277;51.626;7.516;2023-07-31T05:03:17;5.77;;;4.43;;
4529;SDS011;2277;51.626;7.516;2023-07-31T05:05:42;8.70;;;3.40;;
4529;SDS011;2277;51.626;7.516;2023-07-31T05:08:08;8.60;;;4.00;;
4529;SDS011;2277;51.626;7.516;2023-07-31T05:10:34;5.90;;;3.97;;
4529;SDS011;2277;51.626;7.516;2023-07-31T05:12:59;6.97;;;3.87;;
4529;SDS011;2277;51.626;7.516;2023-07-31T05:15:25;7.20;;;4.10;;
4529;SDS011;2277;51.626;7.516;2023-07-31T05:17:51;7.10;;;3.20;;
4529;SDS011;2277;51.626;7.516;2023-07-31T05:20:16;4.37;;;2.30;;
4529;SDS011;2277;51.626;7.516;2023-07-31T05:22:42;7.80;;;4.50;;
4529;SDS011;2277;51.626;7.516;2023-07-31T05:25:07;8.27;;;3.00;;
4529;SDS011;2277;51.626;7.516;2023-07-31T05:27:33;6.87;;;3.67;;
4529;SDS011;2277;51.626;7.516;2023-07-31T05:29:59;9.40;;;4.10;;
4529;SDS011;2277;51.626;7.516;2023-07-31T05:32:24;14.13;;;3.67;;
4529;SDS011;2277;51.626;7.516;2023-07-31T05:34:51;5.47;;;2.43;;
4529;SDS011;2277;51.626;7.516;2023-07-31T05:37:17;11.83;;;4.63;;
4529;SDS011;2277;51.626;7.516;2023-07-31T05:39:43;6.43;;;4.00;;
4529;SDS011;2277;51.626;7.516;2023-07-31T05:42:08;13.33;;;3.23;;
4529;SDS011;2277;51.626;7.516;2023-07-31T05:44:34;10.33;;;4.27;;
4529;SDS011;2277;51.626;7.516;2023-07-31T05:46:59;8.10;;;4.30;;
4529;SDS011;2277;51.626;7.516;2023-07-31T05:49:25;7.10;;;4.00;;
4529;SDS011;2277;51.626;7.516;2023-07-31T05:51:50;5.93;;;3.37;;
4529;SDS011;2277;51.626;7.516;2023-07-31T05:54:16;12.17;;;5.70;;
4529;SDS011;2277;51.626;7.516;2023-07-31T05:56:42;6.30;;;2.70;;
4529;SDS011;2277;51.626;7.516;2023-07-31T05:59:08;13.00;;;5.80;;
4529;SDS011;2277;51.626;7.516;2023-07-31T06:01:35;15.90;;;5.23;;
4529;SDS011;2277;51.626;7.516;2023-07-31T06:04:01;5.80;;;3.53;;
4529;SDS011;2277;51.626;7.516;2023-07-31T06:06:28;9.93;;;4.40;;
4529;SDS011;2277;51.626;7.516;2023-07-31T06:08:53;8.50;;;3.83;;
4529;SDS011;2277;51.626;7.516;2023-07-31T06:11:20;6.37;;;4.43;;
4529;SDS011;2277;51.626;7.516;2023-07-31T06:13:45;8.83;;;3.63;;
4529;SDS011;2277;51.626;7.516;2023-07-31T06:16:13;7.20;;;3.70;;
4529;SDS011;2277;51.626;7.516;2023-07-31T06:18:39;6.07;;;3.80;;
4529;SDS011;2277;51.626;7.516;2023-07-31T06:21:04;8.43;;;5.17;;
4529;SDS011;2277;51.626;7.516;2023-07-31T06:23:30;5.47;;;4.00;;
4529;SDS011;2277;51.626;7.516;2023-07-31T06:25:56;11.60;;;4.20;;
4529;SDS011;2277;51.626;7.516;2023-07-31T06:28:25;8.00;;;4.43;;
4529;SDS011;2277;51.626;7.516;2023-07-31T06:30:54;3.90;;;2.97;;
4529;SDS011;2277;51.626;7.516;2023-07-31T06:33:19;6.10;;;4.00;;
4529;SDS011;2277;51.626;7.516;2023-07-31T06:35:45;3.70;;;3.07;;
4529;SDS011;2277;51.626;7.516;2023-07-31T06:38:10;7.33;;;4.67;;
4529;SDS011;2277;51.626;7.516;2023-07-31T06:40:36;5.80;;;2.80;;
4529;SDS011;2277;51.626;7.516;2023-07-31T06:43:02;5.13;;;3.57;;
4529;SDS011;2277;51.626;7.516;2023-07-31T06:45:33;6.53;;;4.00;;
4529;SDS011;2277;51.626;7.516;2023-07-31T06:47:59;10.13;;;4.97;;
4529;SDS011;2277;51.626;7.516;2023-07-31T06:50:26;7.03;;;2.93;;
4529;SDS011;2277;51.626;7.516;2023-07-31T06:52:58;6.27;;;2.90;;
4529;SDS011;2277;51.626;7.516;2023-07-31T06:55:24;8.80;;;4.83;;
4529;SDS011;2277;51.626;7.516;2023-07-31T06:57:51;6.43;;;2.90;;
4529;SDS011;2277;51.626;7.516;2023-07-31T07:00:18;5.10;;;3.80;;
4529;SDS011;2277;51.626;7.516;2023-07-31T07:02:44;9.70;;;4.67;;
4529;SDS011;2277;51.626;7.516;2023-07-31T07:05:12;6.20;;;4.80;;
4529;SDS011;2277;51.626;7.516;2023-07-31T07:07:38;5.50;;;3.63;;
4529;SDS011;2277;51.626;7.516;2023-07-31T07:10:04;7.30;;;4.50;;
4529;SDS011;2277;51.626;7.516;2023-07-31T07:12:31;8.63;;;4.00;;
4529;SDS011;2277;51.626;7.516;2023-07-31T07:14:57;5.97;;;4.00;;
4529;SDS011;2277;51.626;7.516;2023-07-31T07:17:23;6.63;;;4.13;;
4529;SDS011;2277;51.626;7.516;2023-07-31T07:19:49;9.20;;;4.97;;
4529;SDS011;2277;51.626;7.516;2023-07-31T07:22:15;6.80;;;3.60;;
4529;SDS011;2277;51.626;7.516;2023-07-31T07:24:41;4.47;;;3.20;;
4529;SDS011;2277;51.626;7.516;2023-07-31T07:27:07;4.27;;;3.03;;
4529;SDS011;2277;51.626;7.516;2023-07-31T07:29:33;8.80;;;3.60;;
4529;SDS011;2277;51.626;7.516;2023-07-31T07:31:59;11.53;;;3.87;;
4529;SDS011;2277;51.626;7.516;2023-07-31T07:34:26;4.30;;;2.63;;
4529;SDS011;2277;51.626;7.516;2023-07-31T07:36:52;6.57;;;2.87;;
4529;SDS011;2277;51.626;7.516;2023-07-31T07:39:18;5.93;;;4.10;;
4529;SDS011;2277;51.626;7.516;2023-07-31T07:41:43;4.43;;;2.70;;
4529;SDS011;2277;51.626;7.516;2023-07-31T07:44:09;6.37;;;4.37;;
4529;SDS011;2277;51.626;7.516;2023-07-31T07:46:34;4.10;;;2.83;;
4529;SDS011;2277;51.626;7.516;2023-07-31T07:49:00;6.10;;;2.80;;
4529;SDS011;2277;51.626;7.516;2023-07-31T07:51:26;4.93;;;2.83;;
4529;SDS011;2277;51.626;7.516;2023-07-31T07:53:51;3.10;;;2.80;;
4529;SDS011;2277;51.626;7.516;2023-07-31T07:56:17;3.50;;;3.20;;
4529;SDS011;2277;51.626;7.516;2023-07-31T07:58:42;5.53;;;3.27;;
4529;SDS011;2277;51.626;7.516;2023-07-31T08:01:08;5.37;;;2.60;;
4529;SDS011;2277;51.626;7.516;2023-07-31T08:03:33;4.80;;;2.83;;
4529;SDS011;2277;51.626;7.516;2023-07-31T08:05:59;11.83;;;5.20;;
4529;SDS011;2277;51.626;7.516;2023-07-31T08:08:26;5.33;;;2.63;;
4529;SDS011;2277;51.626;7.516;2023-07-31T08:10:52;5.50;;;3.20;;
4529;SDS011;2277;51.626;7.516;2023-07-31T08:13:18;2.83;;;2.53;;
4529;SDS011;2277;51.626;7.516;2023-07-31T08:15:44;5.47;;;2.67;;
4529;SDS011;2277;51.626;7.516;2023-07-31T08:18:09;3.30;;;2.20;;
4529;SDS011;2277;51.626;7.516;2023-07-31T08:20:37;5.10;;;2.80;;
4529;SDS011;2277;51.626;7.516;2023-07-31T08:23:03;6.40;;;4.30;;
4529;SDS011;2277;51.626;7.516;2023-07-31T08:25:29;5.30;;;3.07;;
4529;SDS011;2277;51.626;7.516;2023-07-31T08:27:54;5.77;;;3.20;;
4529;SDS011;2277;51.626;7.516;2023-07-31T08:30:20;3.83;;;2.50;;
4529;SDS011;2277;51.626;7.516;2023-07-31T08:32:46;5.90;;;4.17;;
4529;SDS011;2277;51.626;7.516;2023-07-31T08:35:12;4.70;;;3.13;;
4529;SDS011;2277;51.626;7.516;2023-07-31T08:37:38;5.17;;;2.70;;
4529;SDS011;2277;51.626;7.516;2023-07-31T08:40:04;13.53;;;5.20;;
4529;SDS011;2277;51.626;7.516;2023-07-31T08:42:30;4.50;;;2.80;;
4529;SDS011;2277;51.626;7.516;2023-07-31T08:44:56;4.10;;;3.20;;
4529;SDS011;2277;51.626;7.516;2023-07-31T08:47:25;4.77;;;2.57;;
4529;SDS011;2277;51.626;7.516;2023-07-31T08:49:51;7.03;;;2.67;;
4529;SDS011;2277;51.626;7.516;2023-07-31T08:52:29;4.77;;;2.00;;
4529;SDS011;2277;51.626;7.516;2023-07-31T08:54:54;5.87;;;4.17;;
4529;SDS011;2277;51.626;7.516;2023-07-31T08:57:20;7.33;;;3.00;;
4529;SDS011;2277;51.626;7.516;2023-07-31T08:59:46;3.97;;;2.80;;
4529;SDS011;2277;51.626;7.516;2023-07-31T09:02:12;3.20;;;2.43;;
4529;SDS011;2277;51.626;7.516;2023-07-31T09:04:41;3.43;;;2.67;;
4529;SDS011;2277;51.626;7.516;2023-07-31T09:07:07;7.10;;;4.03;;
4529;SDS011;2277;51.626;7.516;2023-07-31T09:09:34;5.10;;;3.53;;
4529;SDS011;2277;51.626;7.516;2023-07-31T09:11:59;4.50;;;2.13;;
4529;SDS011;2277;51.626;7.516;2023-07-31T09:14:26;5.03;;;3.03;;
4529;SDS011;2277;51.626;7.516;2023-07-31T09:16:55;8.20;;;2.07;;
4529;SDS011;2277;51.626;7.516;2023-07-31T09:19:25;2.37;;;2.10;;
4529;SDS011;2277;51.626;7.516;2023-07-31T09:21:52;4.67;;;3.10;;
4529;SDS011;2277;51.626;7.516;2023-07-31T09:24:29;3.80;;;2.20;;
4529;SDS011;2277;51.626;7.516;2023-07-31T09:26:59;3.70;;;2.27;;
4529;SDS011;2277;51.626;7.516;2023-07-31T09:29:25;5.57;;;2.47;;
4529;SDS011;2277;51.626;7.516;2023-07-31T09:31:52;6.03;;;3.30;;
4529;SDS011;2277;51.626;7.516;2023-07-31T09:34:18;3.97;;;1.97;;
4529;SDS011;2277;51.626;7.516;2023-07-31T09:36:48;1.90;;;1.70;;
4529;SDS011;2277;51.626;7.516;2023-07-31T09:39:15;2.07;;;1.77;;
4529;SDS011;2277;51.626;7.516;2023-07-31T09:41:46;5.20;;;3.70;;
4529;SDS011;2277;51.626;7.516;2023-07-31T09:44:18;2.50;;;1.80;;
4529;SDS011;2277;51.626;7.516;2023-07-31T09:46:44;5.57;;;2.43;;
4529;SDS011;2277;51.626;7.516;2023-07-31T09:49:10;7.33;;;2.57;;
4529;SDS011;2277;51.626;7.516;2023-07-31T09:51:39;3.90;;;2.10;;
4529;SDS011;2277;51.626;7.516;2023-07-31T09:54:13;2.10;;;1.60;;
4529;SDS011;2277;51.626;7.516;2023-07-31T09:56:43;6.97;;;2.90;;
4529;SDS011;2277;51.626;7.516;2023-07-31T09:59:20;3.73;;;1.43;;
4529;SDS011;2277;51.626;7.516;2023-07-31T10:01:46;6.83;;;4.20;;
4529;SDS011;2277;51.626;7.516;2023-07-31T10:04:13;6.60;;;2.70;;
4529;SDS011;2277;51.626;7.516;2023-07-31T10:06:40;2.50;;;2.30;;
4529;SDS011;2277;51.626;7.516;2023-07-31T10:09:09;4.20;;;3.43;;
4529;SDS011;2277;51.626;7.516;2023-07-31T10:11:45;2.60;;;1.70;;
4529;SDS011;2277;51.626;7.516;2023-07-31T10:14:18;4.10;;;2.37;;
4529;SDS011;2277;51.626;7.516;2023-07-31T10:16:45;3.53;;;1.73;;
4529;SDS011;2277;51.626;7.516;2023-07-31T10:19:11;3.83;;;2.00;;
4529;SDS011;2277;51.626;7.516;2023-07-31T10:21:37;3.20;;;1.90;;
4529;SDS011;2277;51.626;7.516;2023-07-31T10:24:04;2.53;;;1.90;;
4529;SDS011;2277;51.626;7.516;2023-07-31T10:26:30;2.10;;;1.30;;
4529;SDS011;2277;51.626;7.516;2023-07-31T10:28:58;2.37;;;2.10;;
4529;SDS011;2277;51.626;7.516;2023-07-31T10:31:25;3.17;;;1.73;;
4529;SDS011;2277;51.626;7.516;2023-07-31T10:33:52;4.33;;;2.50;;
4529;SDS011;2277;51.626;7.516;2023-07-31T10:36:20;3.40;;;1.83;;
4529;SDS011;2277;51.626;7.516;2023-07-31T10:38:49;3.50;;;1.90;;
4529;SDS011;2277;51.626;7.516;2023-07-31T10:41:15;3.50;;;2.47;;
4529;SDS011;2277;51.626;7.516;2023-07-31T10:43:41;2.40;;;1.70;;
4529;SDS011;2277;51.626;7.516;2023-07-31T10:46:13;2.07;;;1.67;;
4529;SDS011;2277;51.626;7.516;2023-07-31T10:48:40;3.70;;;1.40;;
4529;SDS011;2277;51.626;7.516;2023-07-31T10:51:07;2.67;;;1.87;;
4529;SDS011;2277;51.626;7.516;2023-07-31T10:53:34;1.83;;;1.63;;
4529;SDS011;2277;51.626;7.516;2023-07-31T10:56:01;2.80;;;2.03;;
4529;SDS011;2277;51.626;7.516;2023-07-31T10:58:31;4.80;;;2.23;;
4529;SDS011;2277;51.626;7.516;2023-07-31T11:00:58;1.67;;;1.57;;
4529;SDS011;2277;51.626;7.516;2023-07-31T11:03:26;2.17;;;1.73;;
4529;SDS011;2277;51.626;7.516;2023-07-31T11:06:05;1.30;;;1.00;;
4529;SDS011;2277;51.626;7.516;2023-07-31T11:08:31;3.33;;;3.03;;
4529;SDS011;2277;51.626;7.516;2023-07-31T11:13:26;2.60;;;1.70;;
4529;SDS011;2277;51.626;7.516;2023-07-31T11:16:08;3.33;;;1.50;;
4529;SDS011;2277;51.626;7.516;2023-07-31T11:18:35;3.10;;;2.07;;
4529;SDS011;2277;51.626;7.516;2023-07-31T11:21:01;2.30;;;2.00;;
4529;SDS011;2277;51.626;7.516;2023-07-31T11:23:27;5.33;;;1.87;;
4529;SDS011;2277;51.626;7.516;2023-07-31T11:25:52;2.13;;;1.57;;
4529;SDS011;2277;51.626;7.516;2023-07-31T11:28:23;3.77;;;2.10;;
4529;SDS011;2277;51.626;7.516;2023-07-31T11:30:49;3.87;;;2.97;;
4529;SDS011;2277;51.626;7.516;2023-07-31T11:33:15;3.50;;;2.47;;
4529;SDS011;2277;51.626;7.516;2023-07-31T11:38:27;8.10;;;4.77;;
4529;SDS011;2277;51.626;7.516;2023-07-31T11:40:58;5.73;;;3.83;;
4529;SDS011;2277;51.626;7.516;2023-07-31T11:43:25;3.03;;;2.30;;
4529;SDS011;2277;51.626;7.516;2023-07-31T11:45:52;4.00;;;2.70;;
4529;SDS011;2277;51.626;7.516;2023-07-31T11:48:26;6.57;;;3.50;;
4529;SDS011;2277;51.626;7.516;2023-07-31T11:51:02;4.83;;;3.70;;
4529;SDS011;2277;51.626;7.516;2023-07-31T11:56:07;6.43;;;4.43;;
4529;SDS011;2277;51.626;7.516;2023-07-31T11:58:36;5.10;;;3.30;;
4529;SDS011;2277;51.626;7.516;2023-07-31T12:01:03;5.20;;;1.97;;
4529;SDS011;2277;51.626;7.516;2023-07-31T12:03:29;3.67;;;2.97;;
4529;SDS011;2277;51.626;7.516;2023-07-31T12:05:56;3.20;;;2.17;;
4529;SDS011;2277;51.626;7.516;2023-07-31T12:08:23;3.70;;;2.20;;
4529;SDS011;2277;51.626;7.516;2023-07-31T12:10:50;4.53;;;2.20;;
4529;SDS011;2277;51.626;7.516;2023-07-31T12:13:20;3.17;;;2.90;;
4529;SDS011;2277;51.626;7.516;2023-07-31T12:15:47;2.53;;;1.80;;
4529;SDS011;2277;51.626;7.516;2023-07-31T12:18:16;4.23;;;3.77;;
4529;SDS011;2277;51.626;7.516;2023-07-31T12:20:46;20.10;;;4.73;;
4529;SDS011;2277;51.626;7.516;2023-07-31T12:23:13;6.00;;;3.40;;
4529;SDS011;2277;51.626;7.516;2023-07-31T12:25:39;2.63;;;2.30;;
4529;SDS011;2277;51.626;7.516;2023-07-31T12:28:05;4.37;;;2.20;;
4529;SDS011;2277;51.626;7.516;2023-07-31T12:30:34;3.37;;;2.17;;
4529;SDS011;2277;51.626;7.516;2023-07-31T12:33:03;2.60;;;2.40;;
4529;SDS011;2277;51.626;7.516;2023-07-31T12:35:37;3.00;;;2.30;;
4529;SDS011;2277;51.626;7.516;2023-07-31T12:38:05;2.53;;;1.87;;
4529;SDS011;2277;51.626;7.516;2023-07-31T12:40:31;5.43;;;2.00;;
4529;SDS011;2277;51.626;7.516;2023-07-31T12:42:57;4.50;;;3.30;;
4529;SDS011;2277;51.626;7.516;2023-07-31T12:45:23;4.13;;;2.00;;
4529;SDS011;2277;51.626;7.516;2023-07-31T12:47:48;6.30;;;2.97;;
4529;SDS011;2277;51.626;7.516;2023-07-31T12:50:15;11.33;;;3.73;;
4529;SDS011;2277;51.626;7.516;2023-07-31T12:52:40;2.97;;;2.17;;
4529;SDS011;2277;51.626;7.516;2023-07-31T12:55:06;7.33;;;3.70;;
4529;SDS011;2277;51.626;7.516;2023-07-31T12:57:32;8.50;;;4.47;;
4529;SDS011;2277;51.626;7.516;2023-07-31T12:59:57;9.90;;;3.33;;
4529;SDS011;2277;51.626;7.516;2023-07-31T13:02:23;2.90;;;2.40;;
4529;SDS011;2277;51.626;7.516;2023-07-31T13:04:49;3.03;;;2.13;;
4529;SDS011;2277;51.626;7.516;2023-07-31T13:07:15;3.33;;;2.37;;
4529;SDS011;2277;51.626;7.516;2023-07-31T13:09:41;7.20;;;4.37;;
4529;SDS011;2277;51.626;7.516;2023-07-31T13:12:06;2.07;;;1.53;;
4529;SDS011;2277;51.626;7.516;2023-07-31T13:14:32;2.43;;;1.67;;
4529;SDS011;2277;51.626;7.516;2023-07-31T13:16:58;3.40;;;2.13;;
4529;SDS011;2277;51.626;7.516;2023-07-31T13:19:23;2.10;;;1.90;;
4529;SDS011;2277;51.626;7.516;2023-07-31T13:21:49;3.63;;;2.17;;
4529;SDS011;2277;51.626;7.516;2023-07-31T13:24:15;5.83;;;2.47;;
4529;SDS011;2277;51.626;7.516;2023-07-31T13:26:40;4.60;;;2.60;;
4529;SDS011;2277;51.626;7.516;2023-07-31T13:29:06;3.00;;;2.37;;
4529;SDS011;2277;51.626;7.516;2023-07-31T13:31:31;3.10;;;2.03;;
4529;SDS011;2277;51.626;7.516;2023-07-31T13:33:57;1.90;;;1.60;;
4529;SDS011;2277;51.626;7.516;2023-07-31T13:36:23;2.50;;;1.80;;
4529;SDS011;2277;51.626;7.516;2023-07-31T13:38:48;2.57;;;1.83;;
4529;SDS011;2277;51.626;7.516;2023-07-31T13:41:14;2.80;;;1.47;;
4529;SDS011;2277;51.626;7.516;2023-07-31T13:43:39;4.97;;;2.37;;
4529;SDS011;2277;51.626;7.516;2023-07-31T13:46:06;2.90;;;2.00;;
4529;SDS011;2277;51.626;7.516;2023-07-31T13:48:35;7.33;;;2.87;;
4529;SDS011;2277;51.626;7.516;2023-07-31T13:51:01;2.53;;;1.50;;
4529;SDS011;2277;51.626;7.516;2023-07-31T13:53:26;3.43;;;1.80;;
4529;SDS011;2277;51.626;7.516;2023-07-31T13:55:52;2.63;;;1.83;;
4529;SDS011;2277;51.626;7.516;2023-07-31T13:58:18;3.23;;;2.33;;
4529;SDS011;2277;51.626;7.516;2023-07-31T14:00:43;3.70;;;2.80;;
4529;SDS011;2277;51.626;7.516;2023-07-31T14:03:09;3.53;;;2.10;;
4529;SDS011;2277;51.626;7.516;2023-07-31T14:05:34;3.17;;;1.70;;
4529;SDS011;2277;51.626;7.516;2023-07-31T14:08:00;2.97;;;1.97;;
4529;SDS011;2277;51.626;7.516;2023-07-31T14:10:26;3.43;;;2.20;;
4529;SDS011;2277;51.626;7.516;2023-07-31T14:12:51;3.57;;;2.27;;
4529;SDS011;2277;51.626;7.516;2023-07-31T14:15:17;4.87;;;2.53;;
4529;SDS011;2277;51.626;7.516;2023-07-31T14:17:42;2.00;;;1.47;;
4529;SDS011;2277;51.626;7.516;2023-07-31T14:20:08;3.80;;;2.87;;
4529;SDS011;2277;51.626;7.516;2023-07-31T14:22:36;3.40;;;1.50;;
4529;SDS011;2277;51.626;7.516;2023-07-31T14:25:02;2.00;;;1.60;;
4529;SDS011;2277;51.626;7.516;2023-07-31T14:27:28;4.17;;;2.97;;
4529;SDS011;2277;51.626;7.516;2023-07-31T14:29:54;9.43;;;4.23;;
4529;SDS011;2277;51.626;7.516;2023-07-31T14:32:20;7.77;;;2.07;;
4529;SDS011;2277;51.626;7.516;2023-07-31T14:34:48;2.50;;;1.53;;
4529;SDS011;2277;51.626;7.516;2023-07-31T14:37:14;3.87;;;2.20;;
4529;SDS011;2277;51.626;7.516;2023-07-31T14:39:39;3.63;;;1.77;;
4529;SDS011;2277;51.626;7.516;2023-07-31T14:42:05;12.67;;;2.30;;
4529;SDS011;2277;51.626;7.516;2023-07-31T14:44:30;3.73;;;2.27;;
4529;SDS011;2277;51.626;7.516;2023-07-31T14:46:56;2.30;;;1.97;;
4529;SDS011;2277;51.626;7.516;2023-07-31T14:49:22;3.00;;;1.80;;
4529;SDS011;2277;51.626;7.516;2023-07-31T14:51:47;3.57;;;1.80;;
4529;SDS011;2277;51.626;7.516;2023-07-31T14:54:13;4.70;;;3.67;;
4529;SDS011;2277;51.626;7.516;2023-07-31T14:56:38;5.70;;;2.40;;
4529;SDS011;2277;51.626;7.516;2023-07-31T14:59:04;2.57;;;1.80;;
4529;SDS011;2277;51.626;7.516;2023-07-31T15:01:29;5.10;;;2.07;;
4529;SDS011;2277;51.626;7.516;2023-07-31T15:03:55;3.30;;;2.30;;
4529;SDS011;2277;51.626;7.516;2023-07-31T15:06:21;3.40;;;2.37;;
4529;SDS011;2277;51.626;7.516;2023-07-31T15:08:46;6.23;;;3.30;;
4529;SDS011;2277;51.626;7.516;2023-07-31T15:11:12;2.67;;;2.07;;
4529;SDS011;2277;51.626;7.516;2023-07-31T15:13:38;3.53;;;2.63;;
4529;SDS011;2277;51.626;7.516;2023-07-31T15:16:03;5.23;;;3.83;;
4529;SDS011;2277;51.626;7.516;2023-07-31T15:18:29;6.00;;;3.57;;
4529;SDS011;2277;51.626;7.516;2023-07-31T15:20:54;2.80;;;2.40;;
4529;SDS011;2277;51.626;7.516;2023-07-31T15:23:20;5.40;;;2.83;;
4529;SDS011;2277;51.626;7.516;2023-07-31T15:25:45;7.47;;;3.47;;